sensor_id;sensor_type;location;lat;lon;timestamp;temperature;humidity
6690;DHT22;3382;51.576;8.076;2023-06-05T00:01:11;15.90;99.90
6690;DHT22;3382;51.576;8.076;2023-06-05T00:03:37;15.40;99.90
6690;DHT22;3382;51.576;8.076;2023-06-05T00:06:05;15.30;99.90
6690;DHT22;3382;51.576;8.076;2023-06-05T00:08:31;15.30;99.90
6690;DHT22;3382;51.576;8.076;2023-06-05T00:10:57;15.40;99.90
6690;DHT22;3382;51.576;8.076;2023-06-05T00:13:23;15.20;99.90
6690;DHT22;3382;51.576;8.076;2023-06-05T00:15:48;15.20;99.90
6690;DHT22;3382;51.576;8.076;2023-06-05T00:18:15;15.20;99.90
6690;DHT22;3382;51.576;8.076;2023-06-05T00:20:40;15.20;99.90
6690;DHT22;3382;51.576;8.076;2023-06-05T00:23:09;15.10;99.90
6690;DHT22;3382;51.576;8.076;2023-06-05T00:25:36;15.10;99.90
6690;DHT22;3382;51.576;8.076;2023-06-05T00:28:02;15.20;99.90
6690;DHT22;3382;51.576;8.076;2023-06-05T00:30:28;15.00;99.90
6690;DHT22;3382;51.576;8.076;2023-06-05T00:32:53;15.00;99.90
6690;DHT22;3382;51.576;8.076;2023-06-05T00:35:20;14.80;99.90
6690;DHT22;3382;51.576;8.076;2023-06-05T00:37:46;14.80;99.90
6690;DHT22;3382;51.576;8.076;2023-06-05T00:40:12;14.70;99.90
6690;DHT22;3382;51.576;8.076;2023-06-05T00:42:38;14.70;99.90
6690;DHT22;3382;51.576;8.076;2023-06-05T00:45:04;14.60;99.90
6690;DHT22;3382;51.576;8.076;2023-06-05T00:47:30;14.60;99.90
6690;DHT22;3382;51.576;8.076;2023-06-05T00:49:57;14.60;99.90
6690;DHT22;3382;51.576;8.076;2023-06-05T00:52:22;14.70;99.90
6690;DHT22;3382;51.576;8.076;2023-06-05T00:54:48;14.40;99.90
6690;DHT22;3382;51.576;8.076;2023-06-05T00:57:14;14.30;99.90
6690;DHT22;3382;51.576;8.076;2023-06-05T00:59:40;14.30;99.90
6690;DHT22;3382;51.576;8.076;2023-06-05T01:02:06;14.20;99.90
6690;DHT22;3382;51.576;8.076;2023-06-05T01:04:31;14.20;99.90
6690;DHT22;3382;51.576;8.076;2023-06-05T01:07:02;14.30;99.90
6690;DHT22;3382;51.576;8.076;2023-06-05T01:09:29;14.10;99.90
6690;DHT22;3382;51.576;8.076;2023-06-05T01:14:48;14.10;99.90
6690;DHT22;3382;51.576;8.076;2023-06-05T01:17:16;14.00;99.90
6690;DHT22;3382;51.576;8.076;2023-06-05T01:19:44;14.00;99.90
6690;DHT22;3382;51.576;8.076;2023-06-05T01:22:11;14.20;99.90
6690;DHT22;3382;51.576;8.076;2023-06-05T01:24:38;13.90;99.90
6690;DHT22;3382;51.576;8.076;2023-06-05T01:32:14;13.80;99.90
6690;DHT22;3382;51.576;8.076;2023-06-05T01:34:43;13.80;99.90
6690;DHT22;3382;51.576;8.076;2023-06-05T01:37:10;13.70;99.90
6690;DHT22;3382;51.576;8.076;2023-06-05T01:39:38;13.80;99.90
6690;DHT22;3382;51.576;8.076;2023-06-05T01:42:05;13.70;99.90
6690;DHT22;3382;51.576;8.076;2023-06-05T01:44:31;13.60;99.90
6690;DHT22;3382;51.576;8.076;2023-06-05T01:46:58;13.50;99.90
6690;DHT22;3382;51.576;8.076;2023-06-05T01:49:24;13.50;99.90
6690;DHT22;3382;51.576;8.076;2023-06-05T01:51:49;13.40;99.90
6690;DHT22;3382;51.576;8.076;2023-06-05T01:54:15;13.40;99.90
6690;DHT22;3382;51.576;8.076;2023-06-05T01:56:41;13.40;99.90
6690;DHT22;3382;51.576;8.076;2023-06-05T01:59:08;13.30;99.90
6690;DHT22;3382;51.576;8.076;2023-06-05T02:01:34;13.30;99.90
6690;DHT22;3382;51.576;8.076;2023-06-05T02:04:01;13.30;99.90
6690;DHT22;3382;51.576;8.076;2023-06-05T02:06:32;13.30;99.90
6690;DHT22;3382;51.576;8.076;2023-06-05T02:09:07;13.30;99.90
6690;DHT22;3382;51.576;8.076;2023-06-05T02:11:34;13.20;99.90
6690;DHT22;3382;51.576;8.076;2023-06-05T02:14:01;13.10;99.90
6690;DHT22;3382;51.576;8.076;2023-06-05T02:16:27;13.10;99.90
6690;DHT22;3382;51.576;8.076;2023-06-05T02:18:52;13.00;99.90
6690;DHT22;3382;51.576;8.076;2023-06-05T02:21:18;13.00;99.90
6690;DHT22;3382;51.576;8.076;2023-06-05T02:23:44;13.00;99.90
6690;DHT22;3382;51.576;8.076;2023-06-05T02:26:10;12.90;99.90
6690;DHT22;3382;51.576;8.076;2023-06-05T02:28:36;12.90;99.90
6690;DHT22;3382;51.576;8.076;2023-06-05T02:31:02;12.90;99.90
6690;DHT22;3382;51.576;8.076;2023-06-05T02:33:27;12.90;99.90
6690;DHT22;3382;51.576;8.076;2023-06-05T02:35:53;12.80;99.90
6690;DHT22;3382;51.576;8.076;2023-06-05T02:38:19;12.80;99.90
6690;DHT22;3382;51.576;8.076;2023-06-05T02:40:45;12.80;99.90
6690;DHT22;3382;51.576;8.076;2023-06-05T02:43:10;12.70;99.90
6690;DHT22;3382;51.576;8.076;2023-06-05T02:45:37;12.80;99.90
6690;DHT22;3382;51.576;8.076;2023-06-05T02:48:02;12.70;99.90
6690;DHT22;3382;51.576;8.076;2023-06-05T02:50:28;12.70;99.90
6690;DHT22;3382;51.576;8.076;2023-06-05T02:52:54;12.60;99.90
6690;DHT22;3382;51.576;8.076;2023-06-05T02:55:19;12.60;99.90
6690;DHT22;3382;51.576;8.076;2023-06-05T02:57:45;12.50;99.90
6690;DHT22;3382;51.576;8.076;2023-06-05T03:00:14;12.50;99.90
6690;DHT22;3382;51.576;8.076;2023-06-05T03:02:42;12.50;99.90
6690;DHT22;3382;51.576;8.076;2023-06-05T03:05:14;12.50;99.90
6690;DHT22;3382;51.576;8.076;2023-06-05T03:07:39;12.50;99.90
6690;DHT22;3382;51.576;8.076;2023-06-05T03:10:06;12.50;99.90
6690;DHT22;3382;51.576;8.076;2023-06-05T03:12:33;12.40;99.90
6690;DHT22;3382;51.576;8.076;2023-06-05T03:14:58;12.30;99.90
6690;DHT22;3382;51.576;8.076;2023-06-05T03:17:24;12.30;99.90
6690;DHT22;3382;51.576;8.076;2023-06-05T03:19:50;12.40;99.90
6690;DHT22;3382;51.576;8.076;2023-06-05T03:22:17;12.50;99.90
6690;DHT22;3382;51.576;8.076;2023-06-05T03:24:43;12.20;99.90
6690;DHT22;3382;51.576;8.076;2023-06-05T03:27:09;12.60;99.90
6690;DHT22;3382;51.576;8.076;2023-06-05T03:29:34;12.30;99.90
6690;DHT22;3382;51.576;8.076;2023-06-05T03:32:00;12.70;99.90
6690;DHT22;3382;51.576;8.076;2023-06-05T03:34:26;12.20;99.90
6690;DHT22;3382;51.576;8.076;2023-06-05T03:36:54;12.30;99.90
6690;DHT22;3382;51.576;8.076;2023-06-05T03:39:20;12.20;99.90
6690;DHT22;3382;51.576;8.076;2023-06-05T03:41:46;12.20;99.90
6690;DHT22;3382;51.576;8.076;2023-06-05T03:44:12;12.20;99.90
6690;DHT22;3382;51.576;8.076;2023-06-05T03:46:37;12.20;99.90
6690;DHT22;3382;51.576;8.076;2023-06-05T03:49:04;12.30;99.90
6690;DHT22;3382;51.576;8.076;2023-06-05T03:51:34;12.20;99.90
6690;DHT22;3382;51.576;8.076;2023-06-05T03:54:00;12.20;99.90
6690;DHT22;3382;51.576;8.076;2023-06-05T03:56:26;12.20;99.90
6690;DHT22;3382;51.576;8.076;2023-06-05T03:58:55;12.20;99.90
6690;DHT22;3382;51.576;8.076;2023-06-05T04:01:21;12.30;99.90
6690;DHT22;3382;51.576;8.076;2023-06-05T04:03:46;12.30;99.90
6690;DHT22;3382;51.576;8.076;2023-06-05T04:06:12;12.50;99.90
6690;DHT22;3382;51.576;8.076;2023-06-05T04:08:38;12.60;99.90
6690;DHT22;3382;51.576;8.076;2023-06-05T04:11:03;12.60;99.90
6690;DHT22;3382;51.576;8.076;2023-06-05T04:13:29;12.70;99.90
6690;DHT22;3382;51.576;8.076;2023-06-05T04:15:55;12.90;99.90
6690;DHT22;3382;51.576;8.076;2023-06-05T04:18:20;13.00;99.90
6690;DHT22;3382;51.576;8.076;2023-06-05T04:20:46;13.10;99.90
6690;DHT22;3382;51.576;8.076;2023-06-05T04:23:12;13.30;99.90
6690;DHT22;3382;51.576;8.076;2023-06-05T04:25:37;13.50;99.90
6690;DHT22;3382;51.576;8.076;2023-06-05T04:28:06;13.40;99.90
6690;DHT22;3382;51.576;8.076;2023-06-05T04:30:33;13.40;99.90
6690;DHT22;3382;51.576;8.076;2023-06-05T04:32:58;13.50;99.90
6690;DHT22;3382;51.576;8.076;2023-06-05T04:35:24;13.60;99.90
6690;DHT22;3382;51.576;8.076;2023-06-05T04:37:50;13.60;99.90
6690;DHT22;3382;51.576;8.076;2023-06-05T04:40:17;13.70;99.90
6690;DHT22;3382;51.576;8.076;2023-06-05T04:42:43;13.70;99.90
6690;DHT22;3382;51.576;8.076;2023-06-05T04:45:09;13.80;99.90
6690;DHT22;3382;51.576;8.076;2023-06-05T04:47:35;13.90;99.90
6690;DHT22;3382;51.576;8.076;2023-06-05T04:50:03;14.00;99.90
6690;DHT22;3382;51.576;8.076;2023-06-05T04:52:34;14.10;99.90
6690;DHT22;3382;51.576;8.076;2023-06-05T04:55:05;14.10;99.90
6690;DHT22;3382;51.576;8.076;2023-06-05T04:57:31;14.10;99.90
6690;DHT22;3382;51.576;8.076;2023-06-05T04:59:57;14.40;99.90
6690;DHT22;3382;51.576;8.076;2023-06-05T05:02:23;14.40;99.90
6690;DHT22;3382;51.576;8.076;2023-06-05T05:04:49;14.60;99.90
6690;DHT22;3382;51.576;8.076;2023-06-05T05:07:14;14.80;99.90
6690;DHT22;3382;51.576;8.076;2023-06-05T05:09:44;14.90;99.90
6690;DHT22;3382;51.576;8.076;2023-06-05T05:12:11;15.00;99.90
6690;DHT22;3382;51.576;8.076;2023-06-05T05:14:37;15.10;99.90
6690;DHT22;3382;51.576;8.076;2023-06-05T05:17:03;15.30;99.90
6690;DHT22;3382;51.576;8.076;2023-06-05T05:19:29;15.50;99.90
6690;DHT22;3382;51.576;8.076;2023-06-05T05:21:55;15.60;99.90
6690;DHT22;3382;51.576;8.076;2023-06-05T05:24:21;15.70;99.90
6690;DHT22;3382;51.576;8.076;2023-06-05T05:26:48;15.80;99.90
6690;DHT22;3382;51.576;8.076;2023-06-05T05:29:13;15.90;99.90
6690;DHT22;3382;51.576;8.076;2023-06-05T05:31:39;15.90;99.90
6690;DHT22;3382;51.576;8.076;2023-06-05T05:34:05;16.00;99.90
6690;DHT22;3382;51.576;8.076;2023-06-05T05:36:31;16.50;99.90
6690;DHT22;3382;51.576;8.076;2023-06-05T05:38:58;17.20;99.90
6690;DHT22;3382;51.576;8.076;2023-06-05T05:41:24;17.80;99.90
6690;DHT22;3382;51.576;8.076;2023-06-05T05:43:50;18.30;99.90
6690;DHT22;3382;51.576;8.076;2023-06-05T05:46:15;18.40;99.90
6690;DHT22;3382;51.576;8.076;2023-06-05T05:48:41;17.90;99.90
6690;DHT22;3382;51.576;8.076;2023-06-05T05:51:07;17.50;99.90
6690;DHT22;3382;51.576;8.076;2023-06-05T05:53:33;17.20;99.90
6690;DHT22;3382;51.576;8.076;2023-06-05T05:55:59;17.00;99.90
6690;DHT22;3382;51.576;8.076;2023-06-05T05:58:25;16.90;99.90
6690;DHT22;3382;51.576;8.076;2023-06-05T06:00:51;16.80;99.90
6690;DHT22;3382;51.576;8.076;2023-06-05T06:03:17;16.70;99.90
6690;DHT22;3382;51.576;8.076;2023-06-05T06:05:43;16.70;99.90
6690;DHT22;3382;51.576;8.076;2023-06-05T06:08:10;16.80;99.90
6690;DHT22;3382;51.576;8.076;2023-06-05T06:10:36;16.80;99.90
6690;DHT22;3382;51.576;8.076;2023-06-05T06:13:03;16.90;99.90
6690;DHT22;3382;51.576;8.076;2023-06-05T06:15:30;16.90;99.90
6690;DHT22;3382;51.576;8.076;2023-06-05T06:17:56;17.00;99.90
6690;DHT22;3382;51.576;8.076;2023-06-05T06:20:22;17.10;99.90
6690;DHT22;3382;51.576;8.076;2023-06-05T06:22:49;17.20;99.90
6690;DHT22;3382;51.576;8.076;2023-06-05T06:25:15;17.20;99.90
6690;DHT22;3382;51.576;8.076;2023-06-05T06:27:42;17.20;99.90
6690;DHT22;3382;51.576;8.076;2023-06-05T06:30:09;17.20;99.90
6690;DHT22;3382;51.576;8.076;2023-06-05T06:32:36;17.20;99.90
6690;DHT22;3382;51.576;8.076;2023-06-05T06:35:02;17.20;99.90
6690;DHT22;3382;51.576;8.076;2023-06-05T06:37:27;17.20;99.90
6690;DHT22;3382;51.576;8.076;2023-06-05T06:39:53;17.20;99.90
6690;DHT22;3382;51.576;8.076;2023-06-05T06:42:19;17.20;99.90
6690;DHT22;3382;51.576;8.076;2023-06-05T06:44:45;17.10;99.90
6690;DHT22;3382;51.576;8.076;2023-06-05T06:47:10;17.20;99.90
6690;DHT22;3382;51.576;8.076;2023-06-05T06:49:36;17.20;99.90
6690;DHT22;3382;51.576;8.076;2023-06-05T06:52:02;17.30;99.90
6690;DHT22;3382;51.576;8.076;2023-06-05T06:54:28;17.30;99.90
6690;DHT22;3382;51.576;8.076;2023-06-05T06:56:54;17.60;99.90
6690;DHT22;3382;51.576;8.076;2023-06-05T06:59:20;17.20;99.90
6690;DHT22;3382;51.576;8.076;2023-06-05T07:01:46;17.30;99.90
6690;DHT22;3382;51.576;8.076;2023-06-05T07:04:15;17.30;99.90
6690;DHT22;3382;51.576;8.076;2023-06-05T07:06:47;17.40;99.90
6690;DHT22;3382;51.576;8.076;2023-06-05T07:09:13;17.40;99.90
6690;DHT22;3382;51.576;8.076;2023-06-05T07:11:39;17.50;99.90
6690;DHT22;3382;51.576;8.076;2023-06-05T07:14:05;17.50;99.90
6690;DHT22;3382;51.576;8.076;2023-06-05T07:16:33;17.60;99.90
6690;DHT22;3382;51.576;8.076;2023-06-05T07:18:58;17.60;99.90
6690;DHT22;3382;51.576;8.076;2023-06-05T07:21:24;17.60;99.90
6690;DHT22;3382;51.576;8.076;2023-06-05T07:23:51;17.70;99.90
6690;DHT22;3382;51.576;8.076;2023-06-05T07:26:17;17.80;99.90
6690;DHT22;3382;51.576;8.076;2023-06-05T07:28:43;18.10;99.90
6690;DHT22;3382;51.576;8.076;2023-06-05T07:31:09;18.00;99.90
6690;DHT22;3382;51.576;8.076;2023-06-05T07:33:35;18.00;99.90
6690;DHT22;3382;51.576;8.076;2023-06-05T07:36:01;17.90;99.90
6690;DHT22;3382;51.576;8.076;2023-06-05T07:38:27;18.00;99.90
6690;DHT22;3382;51.576;8.076;2023-06-05T07:40:53;17.90;99.90
6690;DHT22;3382;51.576;8.076;2023-06-05T07:43:18;18.00;99.90
6690;DHT22;3382;51.576;8.076;2023-06-05T07:45:44;18.20;99.90
6690;DHT22;3382;51.576;8.076;2023-06-05T07:48:09;18.30;99.90
6690;DHT22;3382;51.576;8.076;2023-06-05T07:50:35;18.40;99.90
6690;DHT22;3382;51.576;8.076;2023-06-05T07:53:01;18.50;99.90
6690;DHT22;3382;51.576;8.076;2023-06-05T07:55:27;18.70;99.90
6690;DHT22;3382;51.576;8.076;2023-06-05T07:57:53;18.80;99.90
6690;DHT22;3382;51.576;8.076;2023-06-05T08:00:20;18.90;99.90
6690;DHT22;3382;51.576;8.076;2023-06-05T08:02:46;18.90;99.90
6690;DHT22;3382;51.576;8.076;2023-06-05T08:05:15;18.90;99.90
6690;DHT22;3382;51.576;8.076;2023-06-05T08:07:42;19.10;99.90
6690;DHT22;3382;51.576;8.076;2023-06-05T08:10:08;19.10;99.90
6690;DHT22;3382;51.576;8.076;2023-06-05T08:12:34;19.10;99.90
6690;DHT22;3382;51.576;8.076;2023-06-05T08:14:59;19.00;99.90
6690;DHT22;3382;51.576;8.076;2023-06-05T08:17:27;19.00;99.90
6690;DHT22;3382;51.576;8.076;2023-06-05T08:19:52;19.20;99.90
6690;DHT22;3382;51.576;8.076;2023-06-05T08:22:18;19.30;99.90
6690;DHT22;3382;51.576;8.076;2023-06-05T08:24:44;19.70;99.90
6690;DHT22;3382;51.576;8.076;2023-06-05T08:27:09;19.50;99.90
6690;DHT22;3382;51.576;8.076;2023-06-05T08:29:35;19.60;99.90
6690;DHT22;3382;51.576;8.076;2023-06-05T08:32:04;19.70;99.90
6690;DHT22;3382;51.576;8.076;2023-06-05T08:34:30;19.90;99.90
6690;DHT22;3382;51.576;8.076;2023-06-05T08:36:57;20.20;99.90
6690;DHT22;3382;51.576;8.076;2023-06-05T08:39:24;20.50;99.90
6690;DHT22;3382;51.576;8.076;2023-06-05T08:41:53;20.60;99.90
6690;DHT22;3382;51.576;8.076;2023-06-05T08:44:20;20.70;99.90
6690;DHT22;3382;51.576;8.076;2023-06-05T08:46:46;20.70;99.90
6690;DHT22;3382;51.576;8.076;2023-06-05T08:49:16;20.70;99.90
6690;DHT22;3382;51.576;8.076;2023-06-05T08:51:44;20.80;99.90
6690;DHT22;3382;51.576;8.076;2023-06-05T08:54:10;20.80;99.90
6690;DHT22;3382;51.576;8.076;2023-06-05T08:56:39;21.00;99.90
6690;DHT22;3382;51.576;8.076;2023-06-05T08:59:06;21.10;99.90
6690;DHT22;3382;51.576;8.076;2023-06-05T09:01:32;21.30;99.90
6690;DHT22;3382;51.576;8.076;2023-06-05T09:03:58;21.40;99.90
6690;DHT22;3382;51.576;8.076;2023-06-05T09:06:23;21.60;99.90
6690;DHT22;3382;51.576;8.076;2023-06-05T09:08:49;21.80;99.90
6690;DHT22;3382;51.576;8.076;2023-06-05T09:13:53;22.10;99.90
6690;DHT22;3382;51.576;8.076;2023-06-05T09:16:40;22.20;99.90
6690;DHT22;3382;51.576;8.076;2023-06-05T09:19:07;22.30;99.90
6690;DHT22;3382;51.576;8.076;2023-06-05T09:21:34;22.30;99.90
6690;DHT22;3382;51.576;8.076;2023-06-05T09:24:14;22.40;99.90
6690;DHT22;3382;51.576;8.076;2023-06-05T09:27:05;22.60;99.90
6690;DHT22;3382;51.576;8.076;2023-06-05T09:29:34;22.80;99.90
6690;DHT22;3382;51.576;8.076;2023-06-05T09:32:05;22.80;99.90
6690;DHT22;3382;51.576;8.076;2023-06-05T09:34:32;22.90;99.90
6690;DHT22;3382;51.576;8.076;2023-06-05T09:37:07;23.00;99.90
6690;DHT22;3382;51.576;8.076;2023-06-05T09:39:35;23.20;99.90
6690;DHT22;3382;51.576;8.076;2023-06-05T09:42:01;23.40;99.90
6690;DHT22;3382;51.576;8.076;2023-06-05T09:44:28;23.30;99.90
6690;DHT22;3382;51.576;8.076;2023-06-05T09:47:04;23.30;99.90
6690;DHT22;3382;51.576;8.076;2023-06-05T09:52:10;23.50;99.90
6690;DHT22;3382;51.576;8.076;2023-06-05T09:54:38;23.40;99.90
6690;DHT22;3382;51.576;8.076;2023-06-05T09:57:05;23.60;99.90
6690;DHT22;3382;51.576;8.076;2023-06-05T09:59:36;23.80;99.90
6690;DHT22;3382;51.576;8.076;2023-06-05T10:02:05;24.00;99.90
6690;DHT22;3382;51.576;8.076;2023-06-05T10:04:46;24.20;99.90
6690;DHT22;3382;51.576;8.076;2023-06-05T10:07:13;24.30;99.90
6690;DHT22;3382;51.576;8.076;2023-06-05T10:09:39;24.30;99.90
6690;DHT22;3382;51.576;8.076;2023-06-05T10:12:07;24.40;99.90
6690;DHT22;3382;51.576;8.076;2023-06-05T10:14:35;24.40;99.90
6690;DHT22;3382;51.576;8.076;2023-06-05T10:17:01;24.40;99.90
6690;DHT22;3382;51.576;8.076;2023-06-05T10:19:27;24.50;99.90
6690;DHT22;3382;51.576;8.076;2023-06-05T10:21:53;24.70;99.90
6690;DHT22;3382;51.576;8.076;2023-06-05T10:24:45;24.70;99.90
6690;DHT22;3382;51.576;8.076;2023-06-05T10:27:19;24.90;99.90
6690;DHT22;3382;51.576;8.076;2023-06-05T10:41:02;25.10;99.90
6690;DHT22;3382;51.576;8.076;2023-06-05T10:46:01;25.10;99.90
6690;DHT22;3382;51.576;8.076;2023-06-05T10:51:37;25.00;99.00
6690;DHT22;3382;51.576;8.076;2023-06-05T10:54:07;25.20;98.00
6690;DHT22;3382;51.576;8.076;2023-06-05T10:59:34;25.10;96.00
6690;DHT22;3382;51.576;8.076;2023-06-05T11:15:34;25.40;91.30
6690;DHT22;3382;51.576;8.076;2023-06-05T11:18:25;25.50;90.10
6690;DHT22;3382;51.576;8.076;2023-06-05T11:20:51;25.40;90.00
6690;DHT22;3382;51.576;8.076;2023-06-05T11:23:17;25.40;88.20
6690;DHT22;3382;51.576;8.076;2023-06-05T11:25:43;25.40;87.00
6690;DHT22;3382;51.576;8.076;2023-06-05T11:28:08;25.40;87.30
6690;DHT22;3382;51.576;8.076;2023-06-05T11:30:42;25.40;84.00
6690;DHT22;3382;51.576;8.076;2023-06-05T11:33:10;25.40;83.80
6690;DHT22;3382;51.576;8.076;2023-06-05T11:35:38;25.50;82.10
6690;DHT22;3382;51.576;8.076;2023-06-05T11:38:10;25.60;83.20
6690;DHT22;3382;51.576;8.076;2023-06-05T11:40:37;25.40;81.50
6690;DHT22;3382;51.576;8.076;2023-06-05T11:43:07;25.30;80.00
6690;DHT22;3382;51.576;8.076;2023-06-05T11:45:34;25.40;82.10
6690;DHT22;3382;51.576;8.076;2023-06-05T11:48:08;25.60;83.40
6690;DHT22;3382;51.576;8.076;2023-06-05T11:50:35;25.70;82.50
6690;DHT22;3382;51.576;8.076;2023-06-05T11:53:10;25.60;81.30
6690;DHT22;3382;51.576;8.076;2023-06-05T11:55:37;25.70;80.30
6690;DHT22;3382;51.576;8.076;2023-06-05T11:58:28;25.80;79.60
6690;DHT22;3382;51.576;8.076;2023-06-05T12:01:05;25.70;76.00
6690;DHT22;3382;51.576;8.076;2023-06-05T12:03:31;25.60;76.70
6690;DHT22;3382;51.576;8.076;2023-06-05T12:05:57;25.50;76.50
6690;DHT22;3382;51.576;8.076;2023-06-05T12:08:23;25.40;73.60
6690;DHT22;3382;51.576;8.076;2023-06-05T12:10:53;25.40;73.90
6690;DHT22;3382;51.576;8.076;2023-06-05T12:13:19;25.60;77.70
6690;DHT22;3382;51.576;8.076;2023-06-05T12:16:00;25.60;77.10
6690;DHT22;3382;51.576;8.076;2023-06-05T12:18:33;25.70;79.70
6690;DHT22;3382;51.576;8.076;2023-06-05T12:21:00;25.70;78.90
6690;DHT22;3382;51.576;8.076;2023-06-05T12:23:28;25.80;78.00
6690;DHT22;3382;51.576;8.076;2023-06-05T12:28:26;25.60;77.20
6690;DHT22;3382;51.576;8.076;2023-06-05T12:30:53;25.70;77.30
6690;DHT22;3382;51.576;8.076;2023-06-05T12:33:20;25.70;77.80
6690;DHT22;3382;51.576;8.076;2023-06-05T12:36:05;25.90;77.90
6690;DHT22;3382;51.576;8.076;2023-06-05T12:38:37;25.80;78.30
6690;DHT22;3382;51.576;8.076;2023-06-05T12:41:03;25.70;77.50
6690;DHT22;3382;51.576;8.076;2023-06-05T12:43:28;25.70;76.40
6690;DHT22;3382;51.576;8.076;2023-06-05T12:45:54;25.60;75.70
6690;DHT22;3382;51.576;8.076;2023-06-05T12:48:20;25.60;76.60
6690;DHT22;3382;51.576;8.076;2023-06-05T12:50:46;25.70;76.80
6690;DHT22;3382;51.576;8.076;2023-06-05T12:53:13;25.80;77.40
6690;DHT22;3382;51.576;8.076;2023-06-05T12:55:38;25.70;76.80
6690;DHT22;3382;51.576;8.076;2023-06-05T12:58:04;25.50;76.90
6690;DHT22;3382;51.576;8.076;2023-06-05T13:00:29;25.60;78.40
6690;DHT22;3382;51.576;8.076;2023-06-05T13:02:55;25.60;75.90
6690;DHT22;3382;51.576;8.076;2023-06-05T13:05:21;25.40;75.70
6690;DHT22;3382;51.576;8.076;2023-06-05T13:07:46;25.40;75.80
6690;DHT22;3382;51.576;8.076;2023-06-05T13:10:12;25.60;77.70
6690;DHT22;3382;51.576;8.076;2023-06-05T13:12:37;25.70;77.90
6690;DHT22;3382;51.576;8.076;2023-06-05T13:15:04;25.70;75.20
6690;DHT22;3382;51.576;8.076;2023-06-05T13:17:32;25.80;75.00
6690;DHT22;3382;51.576;8.076;2023-06-05T13:20:00;25.90;74.60
6690;DHT22;3382;51.576;8.076;2023-06-05T13:22:26;25.90;75.50
6690;DHT22;3382;51.576;8.076;2023-06-05T13:24:52;26.00;75.60
6690;DHT22;3382;51.576;8.076;2023-06-05T13:27:18;26.00;74.70
6690;DHT22;3382;51.576;8.076;2023-06-05T13:29:45;26.00;74.70
6690;DHT22;3382;51.576;8.076;2023-06-05T13:32:10;26.00;72.70
6690;DHT22;3382;51.576;8.076;2023-06-05T13:34:36;25.90;69.10
6690;DHT22;3382;51.576;8.076;2023-06-05T13:37:01;25.90;68.70
6690;DHT22;3382;51.576;8.076;2023-06-05T13:39:28;25.80;68.90
6690;DHT22;3382;51.576;8.076;2023-06-05T13:41:54;25.60;68.90
6690;DHT22;3382;51.576;8.076;2023-06-05T13:44:19;25.60;69.20
6690;DHT22;3382;51.576;8.076;2023-06-05T13:46:47;25.80;69.60
6690;DHT22;3382;51.576;8.076;2023-06-05T13:49:13;25.80;68.00
6690;DHT22;3382;51.576;8.076;2023-06-05T13:51:39;25.80;68.30
6690;DHT22;3382;51.576;8.076;2023-06-05T13:54:05;25.90;69.20
6690;DHT22;3382;51.576;8.076;2023-06-05T13:56:30;25.90;68.90
6690;DHT22;3382;51.576;8.076;2023-06-05T13:58:56;25.90;69.00
6690;DHT22;3382;51.576;8.076;2023-06-05T14:01:23;25.80;69.10
6690;DHT22;3382;51.576;8.076;2023-06-05T14:03:49;25.80;67.80
6690;DHT22;3382;51.576;8.076;2023-06-05T14:06:16;25.80;67.60
6690;DHT22;3382;51.576;8.076;2023-06-05T14:08:42;25.70;65.50
6690;DHT22;3382;51.576;8.076;2023-06-05T14:11:08;25.50;62.20
6690;DHT22;3382;51.576;8.076;2023-06-05T14:13:35;25.40;59.50
6690;DHT22;3382;51.576;8.076;2023-06-05T14:16:01;25.30;59.40
6690;DHT22;3382;51.576;8.076;2023-06-05T14:18:28;25.30;59.90
6690;DHT22;3382;51.576;8.076;2023-06-05T14:20:54;25.50;60.60
6690;DHT22;3382;51.576;8.076;2023-06-05T14:23:20;25.60;60.10
6690;DHT22;3382;51.576;8.076;2023-06-05T14:25:49;25.70;59.80
6690;DHT22;3382;51.576;8.076;2023-06-05T14:28:14;25.80;61.90
6690;DHT22;3382;51.576;8.076;2023-06-05T14:30:40;25.70;62.10
6690;DHT22;3382;51.576;8.076;2023-06-05T14:33:06;25.80;63.20
6690;DHT22;3382;51.576;8.076;2023-06-05T14:35:31;25.90;62.70
6690;DHT22;3382;51.576;8.076;2023-06-05T14:37:57;25.90;62.50
6690;DHT22;3382;51.576;8.076;2023-06-05T14:40:23;26.00;63.10
6690;DHT22;3382;51.576;8.076;2023-06-05T14:42:49;26.10;64.90
6690;DHT22;3382;51.576;8.076;2023-06-05T14:45:15;26.20;65.40
6690;DHT22;3382;51.576;8.076;2023-06-05T14:47:41;26.20;64.80
6690;DHT22;3382;51.576;8.076;2023-06-05T14:50:07;26.00;61.70
6690;DHT22;3382;51.576;8.076;2023-06-05T14:52:33;25.90;61.00
6690;DHT22;3382;51.576;8.076;2023-06-05T14:54:58;25.80;59.80
6690;DHT22;3382;51.576;8.076;2023-06-05T14:57:24;25.70;58.50
6690;DHT22;3382;51.576;8.076;2023-06-05T14:59:50;25.70;58.40
6690;DHT22;3382;51.576;8.076;2023-06-05T15:02:15;25.80;58.30
6690;DHT22;3382;51.576;8.076;2023-06-05T15:04:41;25.80;57.70
6690;DHT22;3382;51.576;8.076;2023-06-05T15:07:07;25.80;57.50
6690;DHT22;3382;51.576;8.076;2023-06-05T15:09:32;25.90;57.00
6690;DHT22;3382;51.576;8.076;2023-06-05T15:11:58;26.00;57.40
6690;DHT22;3382;51.576;8.076;2023-06-05T15:14:25;26.10;57.70
6690;DHT22;3382;51.576;8.076;2023-06-05T15:16:51;26.10;57.00
6690;DHT22;3382;51.576;8.076;2023-06-05T15:19:16;26.20;58.10
6690;DHT22;3382;51.576;8.076;2023-06-05T15:21:42;26.30;58.80
6690;DHT22;3382;51.576;8.076;2023-06-05T15:24:08;26.40;59.70
6690;DHT22;3382;51.576;8.076;2023-06-05T15:26:34;26.30;60.40
6690;DHT22;3382;51.576;8.076;2023-06-05T15:29:00;26.00;58.90
6690;DHT22;3382;51.576;8.076;2023-06-05T15:31:25;25.80;58.70
6690;DHT22;3382;51.576;8.076;2023-06-05T15:33:51;25.90;59.10
6690;DHT22;3382;51.576;8.076;2023-06-05T15:36:17;26.00;58.90
6690;DHT22;3382;51.576;8.076;2023-06-05T15:38:42;26.10;58.50
6690;DHT22;3382;51.576;8.076;2023-06-05T15:41:08;26.20;58.10
6690;DHT22;3382;51.576;8.076;2023-06-05T15:43:33;26.30;58.30
6690;DHT22;3382;51.576;8.076;2023-06-05T15:45:59;26.40;58.50
6690;DHT22;3382;51.576;8.076;2023-06-05T15:48:25;26.50;59.70
6690;DHT22;3382;51.576;8.076;2023-06-05T15:50:51;26.50;60.30
6690;DHT22;3382;51.576;8.076;2023-06-05T15:53:17;26.50;60.90
6690;DHT22;3382;51.576;8.076;2023-06-05T15:55:43;26.50;61.70
6690;DHT22;3382;51.576;8.076;2023-06-05T15:58:10;26.60;62.30
6690;DHT22;3382;51.576;8.076;2023-06-05T16:00:36;26.60;63.30
6690;DHT22;3382;51.576;8.076;2023-06-05T16:03:02;26.70;64.10
6690;DHT22;3382;51.576;8.076;2023-06-05T16:05:27;26.60;64.30
6690;DHT22;3382;51.576;8.076;2023-06-05T16:07:53;26.60;65.00
6690;DHT22;3382;51.576;8.076;2023-06-05T16:10:19;26.70;65.80
6690;DHT22;3382;51.576;8.076;2023-06-05T16:12:45;26.80;65.90
6690;DHT22;3382;51.576;8.076;2023-06-05T16:15:11;26.70;65.20
6690;DHT22;3382;51.576;8.076;2023-06-05T16:17:41;26.60;65.60
6690;DHT22;3382;51.576;8.076;2023-06-05T16:20:08;26.50;65.60
6690;DHT22;3382;51.576;8.076;2023-06-05T16:22:34;26.40;65.40
6690;DHT22;3382;51.576;8.076;2023-06-05T16:24:59;26.40;65.10
6690;DHT22;3382;51.576;8.076;2023-06-05T16:27:25;26.20;64.50
6690;DHT22;3382;51.576;8.076;2023-06-05T16:29:52;26.10;64.60
6690;DHT22;3382;51.576;8.076;2023-06-05T16:32:18;26.10;64.80
6690;DHT22;3382;51.576;8.076;2023-06-05T16:34:44;26.00;64.00
6690;DHT22;3382;51.576;8.076;2023-06-05T16:37:10;25.90;63.30
6690;DHT22;3382;51.576;8.076;2023-06-05T16:39:35;25.80;63.30
6690;DHT22;3382;51.576;8.076;2023-06-05T16:42:04;25.80;63.30
6690;DHT22;3382;51.576;8.076;2023-06-05T16:44:32;25.80;63.80
6690;DHT22;3382;51.576;8.076;2023-06-05T16:46:58;25.70;64.30
6690;DHT22;3382;51.576;8.076;2023-06-05T16:49:25;25.70;64.60